sensor_id;sensor_type;location;lat;lon;timestamp;P1;durP1;ratioP1;P2;durP2;ratioP2
60352;SDS011;46196;52.970;6.954;2023-02-10T00:01:11;17.77;;;9.15;;
60352;SDS011;46196;52.970;6.954;2023-02-10T00:03:39;24.92;;;13.73;;
60352;SDS011;46196;52.970;6.954;2023-02-10T00:06:06;18.48;;;10.45;;
60352;SDS011;46196;52.970;6.954;2023-02-10T00:08:32;26.42;;;12.68;;
60352;SDS011;46196;52.970;6.954;2023-02-10T00:11:03;26.50;;;13.38;;
60352;SDS011;46196;52.970;6.954;2023-02-10T00:13:31;19.00;;;9.65;;
60352;SDS011;46196;52.970;6.954;2023-02-10T00:15:57;24.70;;;12.52;;
60352;SDS011;46196;52.970;6.954;2023-02-10T00:18:24;21.13;;;10.20;;
60352;SDS011;46196;52.970;6.954;2023-02-10T00:20:50;22.75;;;12.07;;
60352;SDS011;46196;52.970;6.954;2023-02-10T00:23:16;24.05;;;11.68;;
60352;SDS011;46196;52.970;6.954;2023-02-10T00:25:42;20.58;;;11.43;;
60352;SDS011;46196;52.970;6.954;2023-02-10T00:28:08;18.65;;;10.90;;
60352;SDS011;46196;52.970;6.954;2023-02-10T00:30:34;19.00;;;9.73;;
60352;SDS011;46196;52.970;6.954;2023-02-10T00:33:01;16.73;;;10.77;;
60352;SDS011;46196;52.970;6.954;2023-02-10T00:35:26;24.13;;;12.55;;
60352;SDS011;46196;52.970;6.954;2023-02-10T00:37:52;29.08;;;12.48;;
60352;SDS011;46196;52.970;6.954;2023-02-10T00:40:18;18.92;;;10.15;;
60352;SDS011;46196;52.970;6.954;2023-02-10T00:42:44;26.33;;;13.40;;
60352;SDS011;46196;52.970;6.954;2023-02-10T00:45:10;23.58;;;11.23;;
60352;SDS011;46196;52.970;6.954;2023-02-10T00:47:35;20.92;;;11.88;;
60352;SDS011;46196;52.970;6.954;2023-02-10T00:50:01;25.17;;;13.32;;
60352;SDS011;46196;52.970;6.954;2023-02-10T00:52:27;21.48;;;13.05;;
60352;SDS011;46196;52.970;6.954;2023-02-10T00:54:53;21.63;;;11.93;;
60352;SDS011;46196;52.970;6.954;2023-02-10T00:57:19;22.10;;;11.88;;
60352;SDS011;46196;52.970;6.954;2023-02-10T00:59:46;19.23;;;10.70;;
60352;SDS011;46196;52.970;6.954;2023-02-10T01:02:11;19.00;;;10.77;;
60352;SDS011;46196;52.970;6.954;2023-02-10T01:04:37;26.67;;;12.25;;
60352;SDS011;46196;52.970;6.954;2023-02-10T01:07:03;22.77;;;12.43;;
60352;SDS011;46196;52.970;6.954;2023-02-10T01:09:29;28.02;;;11.45;;
60352;SDS011;46196;52.970;6.954;2023-02-10T01:11:54;21.95;;;12.02;;
60352;SDS011;46196;52.970;6.954;2023-02-10T01:14:21;28.10;;;12.43;;
60352;SDS011;46196;52.970;6.954;2023-02-10T01:16:46;20.00;;;10.15;;
60352;SDS011;46196;52.970;6.954;2023-02-10T01:19:12;20.90;;;10.40;;
60352;SDS011;46196;52.970;6.954;2023-02-10T01:21:38;25.45;;;11.35;;
60352;SDS011;46196;52.970;6.954;2023-02-10T01:24:05;19.83;;;11.13;;
60352;SDS011;46196;52.970;6.954;2023-02-10T01:26:32;19.63;;;11.20;;
60352;SDS011;46196;52.970;6.954;2023-02-10T01:28:58;27.85;;;12.63;;
60352;SDS011;46196;52.970;6.954;2023-02-10T01:31:25;26.23;;;12.65;;
60352;SDS011;46196;52.970;6.954;2023-02-10T01:33:52;22.58;;;11.45;;
60352;SDS011;46196;52.970;6.954;2023-02-10T01:36:20;26.13;;;10.60;;
60352;SDS011;46196;52.970;6.954;2023-02-10T01:38:48;29.05;;;12.10;;
60352;SDS011;46196;52.970;6.954;2023-02-10T01:41:15;23.48;;;11.57;;
60352;SDS011;46196;52.970;6.954;2023-02-10T01:46:32;20.02;;;10.77;;
60352;SDS011;46196;52.970;6.954;2023-02-10T01:49:00;23.65;;;11.10;;
60352;SDS011;46196;52.970;6.954;2023-02-10T01:54:27;24.23;;;10.43;;
60352;SDS011;46196;52.970;6.954;2023-02-10T01:56:57;18.73;;;9.15;;
60352;SDS011;46196;52.970;6.954;2023-02-10T01:59:24;15.65;;;8.30;;
60352;SDS011;46196;52.970;6.954;2023-02-10T02:01:53;21.23;;;10.30;;
60352;SDS011;46196;52.970;6.954;2023-02-10T02:04:26;19.33;;;10.18;;
60352;SDS011;46196;52.970;6.954;2023-02-10T02:06:52;16.80;;;9.55;;
60352;SDS011;46196;52.970;6.954;2023-02-10T02:09:18;15.10;;;9.27;;
60352;SDS011;46196;52.970;6.954;2023-02-10T02:12:03;20.25;;;10.07;;
60352;SDS011;46196;52.970;6.954;2023-02-10T02:14:36;16.10;;;7.82;;
60352;SDS011;46196;52.970;6.954;2023-02-10T02:20:35;16.05;;;9.93;;
60352;SDS011;46196;52.970;6.954;2023-02-10T02:26:06;18.65;;;10.27;;
60352;SDS011;46196;52.970;6.954;2023-02-10T02:34:18;19.80;;;11.30;;
60352;SDS011;46196;52.970;6.954;2023-02-10T02:39:52;13.07;;;7.85;;
60352;SDS011;46196;52.970;6.954;2023-02-10T02:44:56;23.02;;;10.70;;
60352;SDS011;46196;52.970;6.954;2023-02-10T02:47:29;19.33;;;10.85;;
60352;SDS011;46196;52.970;6.954;2023-02-10T02:50:06;24.38;;;12.27;;
60352;SDS011;46196;52.970;6.954;2023-02-10T02:55:46;18.75;;;8.73;;
60352;SDS011;46196;52.970;6.954;2023-02-10T03:01:05;22.30;;;10.88;;
60352;SDS011;46196;52.970;6.954;2023-02-10T03:03:38;17.30;;;8.75;;
60352;SDS011;46196;52.970;6.954;2023-02-10T03:06:05;22.65;;;11.55;;
60352;SDS011;46196;52.970;6.954;2023-02-10T03:08:31;18.20;;;10.10;;
60352;SDS011;46196;52.970;6.954;2023-02-10T03:10:58;15.82;;;9.05;;
60352;SDS011;46196;52.970;6.954;2023-02-10T03:13:24;18.42;;;8.23;;
60352;SDS011;46196;52.970;6.954;2023-02-10T03:15:50;23.95;;;12.30;;
60352;SDS011;46196;52.970;6.954;2023-02-10T03:18:15;21.30;;;11.45;;
60352;SDS011;46196;52.970;6.954;2023-02-10T03:20:42;21.65;;;11.15;;
60352;SDS011;46196;52.970;6.954;2023-02-10T03:23:08;25.90;;;11.57;;
60352;SDS011;46196;52.970;6.954;2023-02-10T03:25:34;25.83;;;11.93;;
60352;SDS011;46196;52.970;6.954;2023-02-10T03:28:00;15.15;;;8.35;;
60352;SDS011;46196;52.970;6.954;2023-02-10T03:30:26;23.02;;;11.85;;
60352;SDS011;46196;52.970;6.954;2023-02-10T03:32:54;17.58;;;5.32;;
60352;SDS011;46196;52.970;6.954;2023-02-10T03:35:20;27.67;;;11.98;;
60352;SDS011;46196;52.970;6.954;2023-02-10T03:37:46;20.45;;;8.88;;
60352;SDS011;46196;52.970;6.954;2023-02-10T03:40:12;23.85;;;12.02;;
60352;SDS011;46196;52.970;6.954;2023-02-10T03:42:37;23.33;;;10.25;;
60352;SDS011;46196;52.970;6.954;2023-02-10T03:45:03;20.10;;;10.43;;
60352;SDS011;46196;52.970;6.954;2023-02-10T03:47:29;20.95;;;11.50;;
60352;SDS011;46196;52.970;6.954;2023-02-10T03:49:55;21.35;;;10.70;;
60352;SDS011;46196;52.970;6.954;2023-02-10T03:52:21;26.98;;;12.20;;
60352;SDS011;46196;52.970;6.954;2023-02-10T03:54:47;13.27;;;6.43;;
60352;SDS011;46196;52.970;6.954;2023-02-10T03:57:13;24.27;;;13.00;;
60352;SDS011;46196;52.970;6.954;2023-02-10T03:59:39;23.45;;;12.10;;
60352;SDS011;46196;52.970;6.954;2023-02-10T04:02:05;25.95;;;10.23;;
60352;SDS011;46196;52.970;6.954;2023-02-10T04:04:31;19.77;;;11.48;;
60352;SDS011;46196;52.970;6.954;2023-02-10T04:06:56;23.80;;;11.05;;
60352;SDS011;46196;52.970;6.954;2023-02-10T04:09:22;26.40;;;12.60;;
60352;SDS011;46196;52.970;6.954;2023-02-10T04:11:48;25.80;;;12.45;;
60352;SDS011;46196;52.970;6.954;2023-02-10T04:14:14;24.35;;;12.35;;
60352;SDS011;46196;52.970;6.954;2023-02-10T04:16:40;12.80;;;6.28;;
60352;SDS011;46196;52.970;6.954;2023-02-10T04:19:06;12.85;;;8.00;;
60352;SDS011;46196;52.970;6.954;2023-02-10T04:21:32;23.73;;;11.60;;
60352;SDS011;46196;52.970;6.954;2023-02-10T04:23:57;10.52;;;7.38;;
60352;SDS011;46196;52.970;6.954;2023-02-10T04:26:23;27.85;;;12.50;;
60352;SDS011;46196;52.970;6.954;2023-02-10T04:28:49;15.50;;;7.63;;
60352;SDS011;46196;52.970;6.954;2023-02-10T04:31:15;26.30;;;13.80;;
60352;SDS011;46196;52.970;6.954;2023-02-10T04:33:41;25.10;;;12.13;;
60352;SDS011;46196;52.970;6.954;2023-02-10T04:36:07;18.35;;;9.18;;
60352;SDS011;46196;52.970;6.954;2023-02-10T04:38:33;21.88;;;11.73;;
60352;SDS011;46196;52.970;6.954;2023-02-10T04:40:59;26.05;;;12.80;;
60352;SDS011;46196;52.970;6.954;2023-02-10T04:43:28;18.30;;;9.02;;
60352;SDS011;46196;52.970;6.954;2023-02-10T04:45:54;22.65;;;9.85;;
60352;SDS011;46196;52.970;6.954;2023-02-10T04:48:19;26.17;;;12.02;;
60352;SDS011;46196;52.970;6.954;2023-02-10T04:50:46;24.10;;;12.30;;
60352;SDS011;46196;52.970;6.954;2023-02-10T04:53:12;19.77;;;11.43;;
60352;SDS011;46196;52.970;6.954;2023-02-10T04:55:38;25.15;;;12.07;;
60352;SDS011;46196;52.970;6.954;2023-02-10T04:58:03;22.20;;;10.20;;
60352;SDS011;46196;52.970;6.954;2023-02-10T05:00:29;15.52;;;8.13;;
60352;SDS011;46196;52.970;6.954;2023-02-10T05:02:56;10.98;;;6.72;;
60352;SDS011;46196;52.970;6.954;2023-02-10T05:05:22;13.98;;;7.82;;
60352;SDS011;46196;52.970;6.954;2023-02-10T05:07:49;15.30;;;7.90;;
60352;SDS011;46196;52.970;6.954;2023-02-10T05:10:16;19.38;;;11.05;;
60352;SDS011;46196;52.970;6.954;2023-02-10T05:12:42;25.02;;;10.05;;
60352;SDS011;46196;52.970;6.954;2023-02-10T05:15:07;24.40;;;11.63;;
60352;SDS011;46196;52.970;6.954;2023-02-10T05:17:34;15.90;;;6.90;;
60352;SDS011;46196;52.970;6.954;2023-02-10T05:20:00;19.85;;;10.45;;
60352;SDS011;46196;52.970;6.954;2023-02-10T05:22:26;20.85;;;9.45;;
60352;SDS011;46196;52.970;6.954;2023-02-10T05:24:57;10.05;;;6.85;;
60352;SDS011;46196;52.970;6.954;2023-02-10T05:27:26;15.88;;;8.20;;
60352;SDS011;46196;52.970;6.954;2023-02-10T05:29:52;20.17;;;10.30;;
60352;SDS011;46196;52.970;6.954;2023-02-10T05:32:18;22.65;;;11.48;;
60352;SDS011;46196;52.970;6.954;2023-02-10T05:34:44;12.07;;;5.55;;
60352;SDS011;46196;52.970;6.954;2023-02-10T05:37:10;19.58;;;8.30;;
60352;SDS011;46196;52.970;6.954;2023-02-10T05:39:36;21.00;;;11.73;;
60352;SDS011;46196;52.970;6.954;2023-02-10T05:42:02;16.60;;;7.85;;
60352;SDS011;46196;52.970;6.954;2023-02-10T05:44:28;19.20;;;10.20;;
60352;SDS011;46196;52.970;6.954;2023-02-10T05:46:55;21.40;;;10.27;;
60352;SDS011;46196;52.970;6.954;2023-02-10T05:49:21;16.70;;;7.32;;
60352;SDS011;46196;52.970;6.954;2023-02-10T05:51:46;11.70;;;7.93;;
60352;SDS011;46196;52.970;6.954;2023-02-10T05:54:13;14.32;;;8.07;;
60352;SDS011;46196;52.970;6.954;2023-02-10T05:56:42;15.25;;;8.27;;
60352;SDS011;46196;52.970;6.954;2023-02-10T05:59:08;23.75;;;10.10;;
60352;SDS011;46196;52.970;6.954;2023-02-10T06:01:36;18.08;;;8.88;;
60352;SDS011;46196;52.970;6.954;2023-02-10T06:04:02;13.38;;;6.47;;
60352;SDS011;46196;52.970;6.954;2023-02-10T06:06:28;16.65;;;9.98;;
60352;SDS011;46196;52.970;6.954;2023-02-10T06:08:53;18.45;;;9.38;;
60352;SDS011;46196;52.970;6.954;2023-02-10T06:11:19;15.13;;;9.07;;
60352;SDS011;46196;52.970;6.954;2023-02-10T06:13:45;13.73;;;8.25;;
60352;SDS011;46196;52.970;6.954;2023-02-10T06:16:11;21.67;;;9.43;;
60352;SDS011;46196;52.970;6.954;2023-02-10T06:18:37;19.60;;;10.68;;
60352;SDS011;46196;52.970;6.954;2023-02-10T06:21:03;18.80;;;10.70;;
60352;SDS011;46196;52.970;6.954;2023-02-10T06:23:29;12.15;;;7.53;;
60352;SDS011;46196;52.970;6.954;2023-02-10T06:25:54;21.65;;;11.20;;
60352;SDS011;46196;52.970;6.954;2023-02-10T06:28:26;20.73;;;10.70;;
60352;SDS011;46196;52.970;6.954;2023-02-10T06:30:52;17.42;;;10.02;;
60352;SDS011;46196;52.970;6.954;2023-02-10T06:33:19;17.40;;;9.23;;
60352;SDS011;46196;52.970;6.954;2023-02-10T06:35:45;18.98;;;9.85;;
60352;SDS011;46196;52.970;6.954;2023-02-10T06:38:11;18.85;;;8.80;;
60352;SDS011;46196;52.970;6.954;2023-02-10T06:40:38;22.33;;;9.63;;
60352;SDS011;46196;52.970;6.954;2023-02-10T06:43:04;21.33;;;11.32;;
60352;SDS011;46196;52.970;6.954;2023-02-10T06:45:30;18.58;;;10.65;;
60352;SDS011;46196;52.970;6.954;2023-02-10T06:47:55;14.48;;;7.32;;
60352;SDS011;46196;52.970;6.954;2023-02-10T06:50:21;13.48;;;7.72;;
60352;SDS011;46196;52.970;6.954;2023-02-10T06:52:47;16.02;;;9.38;;
60352;SDS011;46196;52.970;6.954;2023-02-10T06:55:13;13.95;;;8.05;;
60352;SDS011;46196;52.970;6.954;2023-02-10T06:57:40;13.93;;;7.75;;
60352;SDS011;46196;52.970;6.954;2023-02-10T07:00:07;12.30;;;6.78;;
60352;SDS011;46196;52.970;6.954;2023-02-10T07:02:36;15.82;;;8.27;;
60352;SDS011;46196;52.970;6.954;2023-02-10T07:05:03;17.20;;;9.32;;
60352;SDS011;46196;52.970;6.954;2023-02-10T07:07:30;20.10;;;11.13;;
60352;SDS011;46196;52.970;6.954;2023-02-10T07:09:56;20.50;;;10.93;;
60352;SDS011;46196;52.970;6.954;2023-02-10T07:12:23;20.77;;;11.20;;
60352;SDS011;46196;52.970;6.954;2023-02-10T07:14:50;18.65;;;10.32;;
60352;SDS011;46196;52.970;6.954;2023-02-10T07:17:17;17.83;;;8.77;;
60352;SDS011;46196;52.970;6.954;2023-02-10T07:19:43;20.80;;;11.73;;
60352;SDS011;46196;52.970;6.954;2023-02-10T07:22:12;22.50;;;10.10;;
60352;SDS011;46196;52.970;6.954;2023-02-10T07:24:38;23.65;;;10.68;;
60352;SDS011;46196;52.970;6.954;2023-02-10T07:27:03;22.02;;;10.98;;
60352;SDS011;46196;52.970;6.954;2023-02-10T07:29:30;30.90;;;14.98;;
60352;SDS011;46196;52.970;6.954;2023-02-10T07:31:56;31.00;;;13.07;;
60352;SDS011;46196;52.970;6.954;2023-02-10T07:34:25;21.38;;;11.70;;
60352;SDS011;46196;52.970;6.954;2023-02-10T07:36:52;20.70;;;11.10;;
60352;SDS011;46196;52.970;6.954;2023-02-10T07:39:21;21.58;;;10.63;;
60352;SDS011;46196;52.970;6.954;2023-02-10T07:41:47;29.50;;;14.07;;
60352;SDS011;46196;52.970;6.954;2023-02-10T07:44:13;24.60;;;12.60;;
60352;SDS011;46196;52.970;6.954;2023-02-10T07:46:39;27.67;;;12.45;;
60352;SDS011;46196;52.970;6.954;2023-02-10T07:49:05;22.92;;;9.48;;
60352;SDS011;46196;52.970;6.954;2023-02-10T07:51:30;26.85;;;11.38;;
60352;SDS011;46196;52.970;6.954;2023-02-10T07:53:56;20.77;;;10.18;;
60352;SDS011;46196;52.970;6.954;2023-02-10T07:56:22;24.33;;;11.18;;
60352;SDS011;46196;52.970;6.954;2023-02-10T07:58:48;24.05;;;10.50;;
60352;SDS011;46196;52.970;6.954;2023-02-10T08:01:14;22.15;;;12.63;;
60352;SDS011;46196;52.970;6.954;2023-02-10T08:03:40;19.17;;;10.98;;
60352;SDS011;46196;52.970;6.954;2023-02-10T08:06:06;22.33;;;12.10;;
60352;SDS011;46196;52.970;6.954;2023-02-10T08:08:32;22.23;;;11.98;;
60352;SDS011;46196;52.970;6.954;2023-02-10T08:10:58;20.17;;;10.85;;
60352;SDS011;46196;52.970;6.954;2023-02-10T08:13:24;29.75;;;13.13;;
60352;SDS011;46196;52.970;6.954;2023-02-10T08:15:52;26.08;;;13.05;;
60352;SDS011;46196;52.970;6.954;2023-02-10T08:18:18;21.02;;;11.30;;
60352;SDS011;46196;52.970;6.954;2023-02-10T08:20:43;18.35;;;10.32;;
60352;SDS011;46196;52.970;6.954;2023-02-10T08:23:13;22.67;;;11.57;;
60352;SDS011;46196;52.970;6.954;2023-02-10T08:25:40;29.92;;;12.18;;
60352;SDS011;46196;52.970;6.954;2023-02-10T08:28:07;16.63;;;9.30;;
60352;SDS011;46196;52.970;6.954;2023-02-10T08:30:33;28.00;;;12.38;;
60352;SDS011;46196;52.970;6.954;2023-02-10T08:32:58;25.85;;;12.80;;
60352;SDS011;46196;52.970;6.954;2023-02-10T08:35:24;26.63;;;12.27;;
60352;SDS011;46196;52.970;6.954;2023-02-10T08:37:50;25.00;;;12.70;;
60352;SDS011;46196;52.970;6.954;2023-02-10T08:40:16;26.38;;;12.15;;
60352;SDS011;46196;52.970;6.954;2023-02-10T08:42:42;28.58;;;12.75;;
60352;SDS011;46196;52.970;6.954;2023-02-10T08:45:08;17.95;;;10.75;;
60352;SDS011;46196;52.970;6.954;2023-02-10T08:47:34;20.42;;;12.00;;
60352;SDS011;46196;52.970;6.954;2023-02-10T08:50:00;19.35;;;11.38;;
60352;SDS011;46196;52.970;6.954;2023-02-10T08:52:26;22.10;;;10.20;;
60352;SDS011;46196;52.970;6.954;2023-02-10T08:54:52;17.20;;;11.32;;
60352;SDS011;46196;52.970;6.954;2023-02-10T08:57:18;17.98;;;9.63;;
60352;SDS011;46196;52.970;6.954;2023-02-10T08:59:44;27.48;;;13.75;;
60352;SDS011;46196;52.970;6.954;2023-02-10T09:02:12;22.67;;;11.98;;
60352;SDS011;46196;52.970;6.954;2023-02-10T09:04:38;18.52;;;10.52;;
60352;SDS011;46196;52.970;6.954;2023-02-10T09:07:05;19.15;;;11.98;;
60352;SDS011;46196;52.970;6.954;2023-02-10T09:09:31;21.73;;;11.15;;
60352;SDS011;46196;52.970;6.954;2023-02-10T09:12:02;28.45;;;12.38;;
60352;SDS011;46196;52.970;6.954;2023-02-10T09:14:29;26.42;;;13.32;;
60352;SDS011;46196;52.970;6.954;2023-02-10T09:16:55;19.27;;;12.02;;
60352;SDS011;46196;52.970;6.954;2023-02-10T09:19:21;27.50;;;12.57;;
60352;SDS011;46196;52.970;6.954;2023-02-10T09:21:48;23.55;;;12.73;;
60352;SDS011;46196;52.970;6.954;2023-02-10T09:24:15;28.33;;;14.13;;
60352;SDS011;46196;52.970;6.954;2023-02-10T09:26:41;22.05;;;13.15;;
60352;SDS011;46196;52.970;6.954;2023-02-10T09:29:08;16.60;;;9.88;;
60352;SDS011;46196;52.970;6.954;2023-02-10T09:31:35;30.05;;;14.75;;
60352;SDS011;46196;52.970;6.954;2023-02-10T09:34:01;33.05;;;14.10;;
60352;SDS011;46196;52.970;6.954;2023-02-10T09:36:27;26.92;;;15.00;;
60352;SDS011;46196;52.970;6.954;2023-02-10T09:38:54;24.23;;;12.82;;
60352;SDS011;46196;52.970;6.954;2023-02-10T09:41:25;24.40;;;13.20;;
60352;SDS011;46196;52.970;6.954;2023-02-10T09:44:11;21.65;;;12.20;;
60352;SDS011;46196;52.970;6.954;2023-02-10T09:55:12;25.17;;;12.98;;
60352;SDS011;46196;52.970;6.954;2023-02-10T09:57:58;31.27;;;14.77;;
60352;SDS011;46196;52.970;6.954;2023-02-10T10:00:29;26.17;;;12.15;;
60352;SDS011;46196;52.970;6.954;2023-02-10T10:02:58;24.05;;;13.10;;
60352;SDS011;46196;52.970;6.954;2023-02-10T10:11:52;23.83;;;11.85;;
60352;SDS011;46196;52.970;6.954;2023-02-10T10:14:20;24.52;;;13.18;;
60352;SDS011;46196;52.970;6.954;2023-02-10T10:30:06;21.80;;;11.90;;
60352;SDS011;46196;52.970;6.954;2023-02-10T10:32:44;24.50;;;12.23;;
60352;SDS011;46196;52.970;6.954;2023-02-10T10:37:51;26.50;;;11.30;;
60352;SDS011;46196;52.970;6.954;2023-02-10T10:40:27;18.65;;;10.55;;
60352;SDS011;46196;52.970;6.954;2023-02-10T10:42:57;25.30;;;13.18;;
60352;SDS011;46196;52.970;6.954;2023-02-10T10:47:55;21.52;;;11.82;;
60352;SDS011;46196;52.970;6.954;2023-02-10T10:50:22;21.92;;;12.60;;
60352;SDS011;46196;52.970;6.954;2023-02-10T10:52:51;20.60;;;11.80;;
60352;SDS011;46196;52.970;6.954;2023-02-10T10:55:29;23.60;;;12.52;;
60352;SDS011;46196;52.970;6.954;2023-02-10T10:58:47;24.70;;;11.57;;
60352;SDS011;46196;52.970;6.954;2023-02-10T11:00:55;25.00;;;12.33;;
60352;SDS011;46196;52.970;6.954;2023-02-10T11:03:22;24.98;;;10.52;;
60352;SDS011;46196;52.970;6.954;2023-02-10T11:08:45;25.75;;;10.35;;
60352;SDS011;46196;52.970;6.954;2023-02-10T11:11:18;25.88;;;11.50;;
60352;SDS011;46196;52.970;6.954;2023-02-10T11:13:53;26.80;;;13.57;;
60352;SDS011;46196;52.970;6.954;2023-02-10T11:16:20;20.63;;;10.18;;
60352;SDS011;46196;52.970;6.954;2023-02-10T11:18:54;21.38;;;10.50;;
60352;SDS011;46196;52.970;6.954;2023-02-10T11:21:32;21.77;;;8.88;;
60352;SDS011;46196;52.970;6.954;2023-02-10T11:24:02;23.75;;;11.45;;
60352;SDS011;46196;52.970;6.954;2023-02-10T11:26:29;28.63;;;11.65;;
60352;SDS011;46196;52.970;6.954;2023-02-10T11:28:54;27.58;;;12.13;;
60352;SDS011;46196;52.970;6.954;2023-02-10T11:34:03;25.48;;;10.13;;
60352;SDS011;46196;52.970;6.954;2023-02-10T11:36:30;26.60;;;11.05;;
60352;SDS011;46196;52.970;6.954;2023-02-10T11:39:02;26.02;;;10.63;;
60352;SDS011;46196;52.970;6.954;2023-02-10T11:41:41;19.55;;;11.05;;
60352;SDS011;46196;52.970;6.954;2023-02-10T11:44:24;22.05;;;9.80;;
60352;SDS011;46196;52.970;6.954;2023-02-10T11:46:58;24.48;;;11.35;;
60352;SDS011;46196;52.970;6.954;2023-02-10T11:49:26;27.88;;;12.55;;
60352;SDS011;46196;52.970;6.954;2023-02-10T11:51:57;22.75;;;12.13;;
60352;SDS011;46196;52.970;6.954;2023-02-10T11:54:23;18.98;;;10.40;;
60352;SDS011;46196;52.970;6.954;2023-02-10T12:00:05;20.70;;;8.95;;
60352;SDS011;46196;52.970;6.954;2023-02-10T12:08:13;23.05;;;9.27;;
60352;SDS011;46196;52.970;6.954;2023-02-10T12:10:44;25.95;;;11.43;;
60352;SDS011;46196;52.970;6.954;2023-02-10T12:13:29;18.35;;;9.40;;
60352;SDS011;46196;52.970;6.954;2023-02-10T12:18:48;17.60;;;8.07;;
60352;SDS011;46196;52.970;6.954;2023-02-10T12:21:28;18.25;;;9.15;;
60352;SDS011;46196;52.970;6.954;2023-02-10T12:24:36;19.25;;;8.10;;
60352;SDS011;46196;52.970;6.954;2023-02-10T12:27:19;16.25;;;7.47;;
60352;SDS011;46196;52.970;6.954;2023-02-10T12:30:04;14.65;;;6.95;;
60352;SDS011;46196;52.970;6.954;2023-02-10T12:54:26;16.23;;;6.63;;
60352;SDS011;46196;52.970;6.954;2023-02-10T12:57:00;13.63;;;5.90;;
60352;SDS011;46196;52.970;6.954;2023-02-10T13:02:38;16.40;;;7.15;;
60352;SDS011;46196;52.970;6.954;2023-02-10T13:08:00;17.33;;;5.82;;
60352;SDS011;46196;52.970;6.954;2023-02-10T13:10:38;14.10;;;6.93;;
60352;SDS011;46196;52.970;6.954;2023-02-10T13:13:14;15.40;;;6.18;;
60352;SDS011;46196;52.970;6.954;2023-02-10T13:18:22;18.20;;;5.50;;
60352;SDS011;46196;52.970;6.954;2023-02-10T13:21:08;13.82;;;6.22;;
60352;SDS011;46196;52.970;6.954;2023-02-10T13:23:57;13.30;;;5.55;;
60352;SDS011;46196;52.970;6.954;2023-02-10T13:29:30;16.23;;;6.30;;
60352;SDS011;46196;52.970;6.954;2023-02-10T13:34:54;14.75;;;6.47;;
60352;SDS011;46196;52.970;6.954;2023-02-10T13:37:42;16.58;;;6.68;;
60352;SDS011;46196;52.970;6.954;2023-02-10T13:42:38;12.80;;;6.50;;
60352;SDS011;46196;52.970;6.954;2023-02-10T13:47:43;15.10;;;6.10;;
60352;SDS011;46196;52.970;6.954;2023-02-10T13:52:55;13.63;;;5.95;;
60352;SDS011;46196;52.970;6.954;2023-02-10T13:58:47;15.50;;;6.80;;
60352;SDS011;46196;52.970;6.954;2023-02-10T14:00:52;13.70;;;5.68;;
60352;SDS011;46196;52.970;6.954;2023-02-10T14:03:21;11.38;;;4.90;;
60352;SDS011;46196;52.970;6.954;2023-02-10T14:06:00;13.25;;;5.40;;
60352;SDS011;46196;52.970;6.954;2023-02-10T14:11:05;12.47;;;6.17;;
60352;SDS011;46196;52.970;6.954;2023-02-10T14:14:01;15.60;;;5.38;;
60352;SDS011;46196;52.970;6.954;2023-02-10T14:16:46;16.70;;;6.78;;
60352;SDS011;46196;52.970;6.954;2023-02-10T14:21:59;15.43;;;5.65;;
60352;SDS011;46196;52.970;6.954;2023-02-10T14:24:29;13.45;;;5.88;;
60352;SDS011;46196;52.970;6.954;2023-02-10T14:27:00;16.52;;;6.30;;
60352;SDS011;46196;52.970;6.954;2023-02-10T14:29:28;15.43;;;6.28;;
60352;SDS011;46196;52.970;6.954;2023-02-10T14:31:56;19.65;;;6.20;;
60352;SDS011;46196;52.970;6.954;2023-02-10T14:34:29;14.70;;;6.55;;
60352;SDS011;46196;52.970;6.954;2023-02-10T14:39:24;14.77;;;7.63;;
60352;SDS011;46196;52.970;6.954;2023-02-10T14:41:53;11.50;;;4.63;;
60352;SDS011;46196;52.970;6.954;2023-02-10T14:44:28;14.32;;;6.85;;
60352;SDS011;46196;52.970;6.954;2023-02-10T14:47:17;11.60;;;6.55;;
60352;SDS011;46196;52.970;6.954;2023-02-10T14:49:53;9.35;;;5.35;;
60352;SDS011;46196;52.970;6.954;2023-02-10T14:52:23;15.85;;;6.40;;
60352;SDS011;46196;52.970;6.954;2023-02-10T14:54:52;17.27;;;7.18;;
60352;SDS011;46196;52.970;6.954;2023-02-10T14:57:20;15.88;;;7.50;;
60352;SDS011;46196;52.970;6.954;2023-02-10T14:59:55;18.02;;;6.63;;
60352;SDS011;46196;52.970;6.954;2023-02-10T15:02:23;15.30;;;6.90;;
60352;SDS011;46196;52.970;6.954;2023-02-10T15:04:55;11.80;;;6.85;;
60352;SDS011;46196;52.970;6.954;2023-02-10T15:07:47;17.08;;;6.78;;
60352;SDS011;46196;52.970;6.954;2023-02-10T15:13:08;18.83;;;8.10;;
60352;SDS011;46196;52.970;6.954;2023-02-10T15:15:35;18.27;;;8.30;;
60352;SDS011;46196;52.970;6.954;2023-02-10T15:18:17;17.63;;;8.00;;
60352;SDS011;46196;52.970;6.954;2023-02-10T15:20:52;17.73;;;8.13;;
60352;SDS011;46196;52.970;6.954;2023-02-10T15:23:20;18.55;;;8.55;;
60352;SDS011;46196;52.970;6.954;2023-02-10T15:25:46;15.75;;;8.45;;
60352;SDS011;46196;52.970;6.954;2023-02-10T15:36:24;14.25;;;6.78;;
60352;SDS011;46196;52.970;6.954;2023-02-10T15:41:59;20.60;;;7.50;;
60352;SDS011;46196;52.970;6.954;2023-02-10T15:47:24;17.85;;;7.63;;
60352;SDS011;46196;52.970;6.954;2023-02-10T15:49:52;21.38;;;6.78;;
60352;SDS011;46196;52.970;6.954;2023-02-10T15:52:34;16.40;;;7.90;;
60352;SDS011;46196;52.970;6.954;2023-02-10T15:55:09;17.83;;;7.15;;
60352;SDS011;46196;52.970;6.954;2023-02-10T15:57:40;16.33;;;5.78;;
60352;SDS011;46196;52.970;6.954;2023-02-10T16:00:39;21.15;;;7.13;;
60352;SDS011;46196;52.970;6.954;2023-02-10T16:03:00;14.65;;;6.18;;
60352;SDS011;46196;52.970;6.954;2023-02-10T16:05:26;17.30;;;6.45;;
60352;SDS011;46196;52.970;6.954;2023-02-10T16:07:53;14.75;;;6.70;;
60352;SDS011;46196;52.970;6.954;2023-02-10T16:10:23;12.38;;;6.53;;
60352;SDS011;46196;52.970;6.954;2023-02-10T16:12:50;20.83;;;8.07;;
60352;SDS011;46196;52.970;6.954;2023-02-10T16:15:20;17.42;;;7.13;;
60352;SDS011;46196;52.970;6.954;2023-02-10T16:17:49;14.77;;;6.70;;
60352;SDS011;46196;52.970;6.954;2023-02-10T16:22:45;18.27;;;7.82;;
60352;SDS011;46196;52.970;6.954;2023-02-10T16:25:12;17.05;;;7.57;;
60352;SDS011;46196;52.970;6.954;2023-02-10T16:27:39;11.63;;;4.60;;
60352;SDS011;46196;52.970;6.954;2023-02-10T16:30:05;13.38;;;5.80;;
60352;SDS011;46196;52.970;6.954;2023-02-10T16:32:31;17.70;;;6.40;;
60352;SDS011;46196;52.970;6.954;2023-02-10T16:34:57;20.08;;;7.53;;
60352;SDS011;46196;52.970;6.954;2023-02-10T16:37:23;18.90;;;8.07;;
60352;SDS011;46196;52.970;6.954;2023-02-10T16:39:49;13.95;;;5.43;;
60352;SDS011;46196;52.970;6.954;2023-02-10T16:42:15;22.40;;;6.13;;
60352;SDS011;46196;52.970;6.954;2023-02-10T16:44:41;18.10;;;6.70;;
60352;SDS011;46196;52.970;6.954;2023-02-10T16:47:17;13.43;;;6.53;;
60352;SDS011;46196;52.970;6.954;2023-02-10T16:49:45;22.98;;;8.18;;
60352;SDS011;46196;52.970;6.954;2023-02-10T16:52:11;14.18;;;6.10;;
60352;SDS011;46196;52.970;6.954;2023-02-10T16:54:37;18.15;;;8.13;;
60352;SDS011;46196;52.970;6.954;2023-02-10T16:57:03;21.52;;;8.05;;
60352;SDS011;46196;52.970;6.954;2023-02-10T16:59:29;16.55;;;7.72;;
60352;SDS011;46196;52.970;6.954;2023-02-10T17:01:56;18.02;;;8.52;;
60352;SDS011;46196;52.970;6.954;2023-02-10T17:04:22;20.50;;;9.27;;
60352;SDS011;46196;52.970;6.954;2023-02-10T17:06:48;24.90;;;9.63;;
60352;SDS011;46196;52.970;6.954;2023-02-10T17:09:17;19.48;;;8.65;;
60352;SDS011;46196;52.970;6.954;2023-02-10T17:11:45;16.23;;;8.40;;